»·PEaware :: TCX457 LXGB-LPMA

TCX457 :: LXGB-LPMA

FLIGHT INFORMATION

Flight Status: Arrived
Operator:
Thomas Cook Airlines
More flights by this operator :: More flights under this callsign
Pilot: Alan S. (10569)
Aircraft: AIRBUS A330-200
(A332)
More flights by this aircraft type
Origin: LXGB Gibraltar AB
Gibraltar
Destination: LPMA Madeira
Portugal
More flights between these airports :: More routes between these airports
Route: AMPIR UT100 ORTOP LIDRO LIDR1C
File this flight plan on PilotEdge
Remarks:
Altitude:
(Current/Filed)
35,000ft
Speed:
(Current/Filed)
493kts
Departed: 23-Jun-17 08:22 PM
Arrived: 23-Jun-17 10:20 PM
Distance/Time
Traveled:
602nm/1:58
Distance/Time
To Go:
Arrived

Flight Plot

Page will automatically refresh every two minutes.

Flight plan parsing failed; only flown route is shown


Map Options




Map Legend


Flown Route
Filed Route
Departure Airport
Arrival Airport
Navaid (VOR, NDB)
Fix

Horizontal Profiles

Position Reports

Time Latitude Longitude Heading Altitude Ground
Speed
23-Jun-17 19:50 36.153261 -5.343330 18 19ft 0kts
23-Jun-17 19:51 36.153261 -5.343330 18 19ft 0kts
23-Jun-17 19:52 36.153261 -5.343330 18 19ft 0kts
23-Jun-17 19:53 36.153261 -5.343330 18 19ft 0kts
23-Jun-17 19:54 36.153261 -5.343330 18 19ft 0kts
23-Jun-17 19:55 36.153261 -5.343330 18 19ft 0kts
23-Jun-17 19:56 36.153261 -5.343330 18 19ft 0kts
23-Jun-17 19:57 36.153261 -5.343330 18 19ft 0kts
23-Jun-17 19:58 36.153261 -5.343330 18 19ft 0kts
23-Jun-17 19:59 36.153261 -5.343330 18 19ft 0kts
23-Jun-17 20:00 36.153261 -5.343330 18 19ft 0kts
23-Jun-17 20:01 36.153261 -5.343330 18 19ft 0kts
23-Jun-17 20:02 36.153261 -5.343330 18 19ft 0kts
23-Jun-17 20:03 36.153261 -5.343330 18 19ft 0kts
23-Jun-17 20:04 36.153261 -5.343330 18 19ft 0kts
23-Jun-17 20:05 36.153261 -5.343330 18 19ft 0kts
23-Jun-17 20:06 36.153261 -5.343330 18 19ft 0kts
23-Jun-17 20:07 36.153261 -5.343330 18 19ft 0kts
23-Jun-17 20:08 36.153261 -5.343330 18 19ft 0kts
23-Jun-17 20:09 36.153261 -5.343330 18 19ft 0kts
23-Jun-17 20:10 36.153261 -5.343330 18 19ft 0kts
23-Jun-17 20:11 36.153261 -5.343330 18 19ft 0kts
23-Jun-17 20:12 36.153261 -5.343330 18 19ft 0kts
23-Jun-17 20:13 36.153261 -5.343330 18 19ft 0kts
23-Jun-17 20:14 36.153261 -5.343330 18 19ft 0kts
23-Jun-17 20:15 36.153261 -5.343330 18 19ft 0kts
23-Jun-17 20:16 36.153261 -5.343330 18 19ft 0kts
23-Jun-17 20:17 36.153183 -5.343355 16 19ft 0kts
23-Jun-17 20:18 36.152663 -5.343535 15 19ft 0kts
23-Jun-17 20:19 36.152349 -5.343745 91 19ft 0kts
23-Jun-17 20:20 36.152349 -5.343745 91 19ft 0kts
23-Jun-17 20:21 36.152367 -5.343280 87 19ft 6kts
23-Jun-17 20:22 36.152472 -5.340580 89 17ft 0kts
23-Jun-17 20:23 36.152472 -5.340580 89 17ft 0kts
23-Jun-17 20:24 36.152381 -5.340002 125 16ft 1kts
23-Jun-17 20:25 36.151198 -5.348687 267 19ft 104kts
23-Jun-17 20:26 36.128139 -5.381594 182 1227ft 172kts
23-Jun-17 20:27 36.149162 -5.371678 241 374ft 164kts
23-Jun-17 20:28 36.081186 -5.379574 179 2503ft 197kts
23-Jun-17 20:29 36.026780 -5.377099 179 4487ft 200kts
23-Jun-17 20:30 35.982063 -5.403719 274 6135ft 222kts
23-Jun-17 20:31 35.981131 -5.486195 266 7897ft 264kts
23-Jun-17 20:32 35.973223 -5.582188 264 10197ft 290kts
23-Jun-17 20:33 35.962955 -5.692451 263 11385ft 356kts
23-Jun-17 20:34 35.950522 -5.822505 264 13458ft 390kts
23-Jun-17 20:35 35.937906 -5.957550 268 15994ft 404kts
23-Jun-17 20:36 35.935076 -6.097572 271 18491ft 413kts
23-Jun-17 20:37 35.932318 -6.239705 271 20842ft 420kts
23-Jun-17 20:38 35.929376 -6.384546 271 23034ft 426kts
23-Jun-17 20:39 35.926214 -6.531100 271 25020ft 431kts
23-Jun-17 20:40 35.922884 -6.679158 271 26781ft 436kts
23-Jun-17 20:41 35.938454 -6.802295 281 28096ft 438kts
23-Jun-17 20:42 35.960925 -6.949139 280 29483ft 444kts
23-Jun-17 20:43 35.988096 -7.126147 275 30527ft 460kts
23-Jun-17 20:44 36.010670 -7.276188 276 32850ft 436kts
23-Jun-17 20:45 36.014012 -7.420630 253 34143ft 421kts
23-Jun-17 20:46 35.985348 -7.535330 251 34989ft 419kts
23-Jun-17 20:47 35.948520 -7.671435 250 35909ft 417kts
23-Jun-17 20:48 35.911544 -7.806738 250 36735ft 416kts
23-Jun-17 20:49 35.874317 -7.941620 250 37416ft 417kts
23-Jun-17 20:50 35.837029 -8.076460 250 38034ft 417kts
23-Jun-17 20:51 35.799186 -8.212699 250 38140ft 427kts
23-Jun-17 20:52 35.760059 -8.352818 250 38359ft 432kts
23-Jun-17 20:53 35.722543 -8.492843 254 38251ft 429kts
23-Jun-17 20:54 35.689744 -8.631440 253 38120ft 424kts
23-Jun-17 20:55 35.656160 -8.771057 252 38144ft 436kts
23-Jun-17 20:56 35.623043 -8.907886 252 38130ft 415kts
23-Jun-17 20:57 35.589343 -9.046356 252 38120ft 426kts
23-Jun-17 20:58 35.555668 -9.183950 252 38132ft 422kts
23-Jun-17 20:59 35.521796 -9.321813 252 38134ft 422kts
23-Jun-17 21:00 35.487797 -9.459523 252 38126ft 422kts
23-Jun-17 21:01 35.453683 -9.594971 251 38125ft 422kts
23-Jun-17 21:02 35.418802 -9.732159 251 38134ft 422kts
23-Jun-17 21:03 35.384515 -9.868511 251 38132ft 422kts
23-Jun-17 21:04 35.349828 -10.005777 251 38126ft 422kts
23-Jun-17 21:05 35.315052 -10.142704 251 38127ft 422kts
23-Jun-17 21:06 35.280085 -10.279642 251 38130ft 422kts
23-Jun-17 21:07 35.244962 -10.416469 251 38129ft 422kts
23-Jun-17 21:08 35.209683 -10.553188 251 38126ft 422kts
23-Jun-17 21:09 35.174327 -10.689542 251 38129ft 422kts
23-Jun-17 21:10 35.138728 -10.826179 251 38133ft 422kts
23-Jun-17 21:11 35.103295 -10.961439 250 38129ft 416kts
23-Jun-17 21:12 35.068008 -11.095373 249 38124ft 413kts
23-Jun-17 21:13 35.032810 -11.228300 250 37714ft 408kts
23-Jun-17 21:14 34.997564 -11.360732 250 34895ft 416kts
23-Jun-17 21:15 34.963328 -11.488816 249 31807ft 431kts
23-Jun-17 21:16 34.933569 -11.599639 249 30029ft 439kts
23-Jun-17 21:17 34.895331 -11.741430 249 29996ft 442kts
23-Jun-17 21:18 34.856636 -11.883633 249 30003ft 443kts
23-Jun-17 21:19 34.817823 -12.025975 249 30003ft 443kts
23-Jun-17 21:20 34.778978 -12.167709 249 30002ft 443kts
23-Jun-17 21:21 34.739841 -12.309772 249 30041ft 443kts
23-Jun-17 21:22 34.700586 -12.451533 249 30134ft 443kts
23-Jun-17 21:23 34.661191 -12.593081 249 30158ft 443kts
23-Jun-17 21:24 34.621520 -12.735032 248 30158ft 443kts
23-Jun-17 21:25 34.581772 -12.876419 248 30156ft 443kts
23-Jun-17 21:26 34.541900 -13.017510 248 30156ft 442kts
23-Jun-17 21:27 34.502093 -13.157663 248 30156ft 439kts
23-Jun-17 21:28 34.462287 -13.297128 248 30155ft 438kts
23-Jun-17 21:29 34.422405 -13.436174 248 30155ft 438kts
23-Jun-17 21:30 34.382285 -13.575368 248 30155ft 438kts
23-Jun-17 21:31 34.342107 -13.714194 248 30156ft 438kts
23-Jun-17 21:32 34.301732 -13.852964 248 30155ft 438kts
23-Jun-17 21:33 34.261207 -13.991529 248 30155ft 438kts
23-Jun-17 21:34 34.220446 -14.130232 248 30155ft 438kts
23-Jun-17 21:35 34.179641 -14.268429 248 30156ft 438kts
23-Jun-17 21:36 34.138557 -14.406904 248 30155ft 438kts
23-Jun-17 21:37 34.097367 -14.545080 248 30154ft 438kts
23-Jun-17 21:38 34.056734 -14.680797 248 30157ft 438kts
23-Jun-17 21:39 34.015301 -14.818601 247 30156ft 438kts
23-Jun-17 21:40 33.973710 -14.956225 247 30155ft 436kts
23-Jun-17 21:41 33.932325 -15.092507 247 30154ft 433kts
23-Jun-17 21:42 33.891069 -15.227538 246 30159ft 432kts
23-Jun-17 21:43 33.849467 -15.362921 246 30158ft 432kts
23-Jun-17 21:44 33.807846 -15.498090 246 30156ft 432kts
23-Jun-17 21:45 33.766012 -15.633360 246 30154ft 432kts
23-Jun-17 21:46 33.724137 -15.768304 246 30159ft 431kts
23-Jun-17 21:47 33.682398 -15.902058 245 29452ft 418kts
23-Jun-17 21:48 33.602235 -15.997875 216 28527ft 416kts
23-Jun-17 21:49 33.506331 -16.073190 214 27553ft 411kts
23-Jun-17 21:50 33.410872 -16.146222 214 26566ft 406kts
23-Jun-17 21:51 33.316381 -16.218230 214 25566ft 401kts
23-Jun-17 21:52 33.222868 -16.289301 214 24553ft 397kts
23-Jun-17 21:53 33.130327 -16.359457 214 23522ft 392kts
23-Jun-17 21:54 33.038781 -16.428667 214 22495ft 391kts
23-Jun-17 21:55 32.947084 -16.497814 214 21460ft 391kts
23-Jun-17 21:56 32.866028 -16.578681 222 20458ft 385kts
23-Jun-17 21:57 32.768211 -16.587896 144 19475ft 418kts
23-Jun-17 21:58 32.724162 -16.462434 114 18025ft 428kts
23-Jun-17 21:59 32.693561 -16.331157 87 16165ft 427kts
23-Jun-17 22:00 32.758492 -16.218703 54 14329ft 420kts
23-Jun-17 22:01 32.857223 -16.191249 322 12455ft 389kts
23-Jun-17 22:02 32.868048 -16.295148 235 12157ft 331kts
23-Jun-17 22:03 32.835744 -16.392929 250 11293ft 334kts
23-Jun-17 22:04 32.804367 -16.502799 252 7834ft 350kts
23-Jun-17 22:05 32.776016 -16.603349 253 6200ft 300kts
23-Jun-17 22:06 32.749222 -16.696789 251 5989ft 301kts
23-Jun-17 22:07 32.680671 -16.727978 145 5948ft 316kts
23-Jun-17 22:08 32.684617 -16.651740 26 5254ft 269kts
23-Jun-17 22:09 32.756451 -16.642600 337 4512ft 262kts
23-Jun-17 22:10 32.822046 -16.677041 336 3997ft 248kts
23-Jun-17 22:11 32.890371 -16.679518 13 3680ft 249kts
23-Jun-17 22:12 32.899199 -16.618459 156 3027ft 255kts
23-Jun-17 22:13 32.838159 -16.652117 211 2925ft 257kts
23-Jun-17 22:14 32.780067 -16.687282 202 2000ft 206kts
23-Jun-17 22:15 32.732726 -16.712826 205 1363ft 168kts
23-Jun-17 22:16 32.690175 -16.736878 205 1362ft 172kts
23-Jun-17 22:17 32.658605 -16.767180 283 1242ft 148kts
23-Jun-17 22:18 32.691294 -16.784117 43 654ft 158kts
23-Jun-17 22:19 32.707529 -16.734424 130 1342ft 168kts
23-Jun-17 22:20 32.664929 -16.746493 212 1390ft 183kts
23-Jun-17 22:21 32.644117 -16.786362 300 1279ft 157kts
23-Jun-17 22:22 32.681105 -16.794347 46 512ft 161kts
23-Jun-17 22:23 32.701551 -16.770252 35 201ft 19kts
23-Jun-17 22:24 32.703910 -16.767790 183 203ft 5kts
23-Jun-17 22:25 32.697905 -16.772420 227 196ft 19kts
23-Jun-17 22:26 32.695269 -16.775649 224 183ft 8kts
23-Jun-17 22:27 32.694232 -16.776074 137 179ft 4kts
23-Jun-17 22:28 32.694132 -16.775966 137 180ft 0kts
23-Jun-17 22:29 32.694132 -16.775966 137 180ft 0kts
23-Jun-17 22:30 32.675464 -16.787784 340 938ft 154kts
23-Jun-17 22:31 32.710434 -16.756424 72 766ft 182kts
23-Jun-17 22:32 32.689859 -16.783867 44 192ft 159kts
23-Jun-17 22:33 32.661370 -16.801250 349 1075ft 160kts
23-Jun-17 22:34 32.696463 -16.776122 44 184ft 110kts
23-Jun-17 22:35 32.679704 -16.796022 44 596ft 159kts
23-Jun-17 22:36 32.689084 -16.784784 44 208ft 160kts
23-Jun-17 22:37 32.689243 -16.784597 44 205ft 160kts

Navigation Log

Ident Type
Flight plan parsing failed, navigation log unavailable